Time;durP1;ratioP1;P1;durP2;ratioP2;P2;SDS_P1;SDS_P2;PMS_P1;PMS_P2;Temp;Humidity;BMP_temperature;BMP_pressure;BME280_temperature;BME280_humidity;BME280_pressure;Samples;Min_cycle;Max_cycle;Signal;HPM_P1;HPM_P2
2022/08/29 00:00:09;;;;;;;11.45;8.25;;;;;;;18.36;100.00;98038.84;1756608;81;21416;-92
2022/08/29 00:02:37;;;;;;;9.68;8.15;;;;;;;18.37;100.00;98041.25;1756688;80;20955;-91
2022/08/29 00:05:05;;;;;;;9.58;8.35;;;;;;;18.39;100.00;98043.69;1757574;80;21138;-86
2022/08/29 00:07:31;;;;;;;9.90;7.87;;;;;;;18.39;100.00;98043.69;1724670;82;20996;-86
2022/08/29 00:09:57;;;;;;;9.60;8.20;;;;;;;18.40;100.00;98042.55;1747933;81;20949;-85
2022/08/29 00:12:22;;;;;;;10.35;7.08;;;;;;;18.40;100.00;98048.03;1771992;81;20823;-92
2022/08/29 00:14:48;;;;;;;9.40;7.35;;;;;;;18.38;100.00;98041.51;1757536;81;20970;-91
2022/08/29 00:17:14;;;;;;;11.08;7.85;;;;;;;18.40;100.00;98043.92;1756861;81;21339;-86
2022/08/29 00:19:40;;;;;;;8.45;7.53;;;;;;;18.42;100.00;98046.56;1756619;81;20930;-86
2022/08/29 00:22:06;;;;;;;10.53;6.90;;;;;;;18.45;100.00;98046.45;1763590;81;20946;-86
2022/08/29 00:24:32;;;;;;;8.63;7.72;;;;;;;18.46;100.00;98044.78;1756731;80;21390;-86
2022/08/29 00:27:00;;;;;;;9.50;7.25;;;;;;;18.48;100.00;98047.19;1756762;80;21003;-91
2022/08/29 00:29:26;;;;;;;9.68;6.97;;;;;;;18.49;100.00;98043.30;1757063;80;21968;-86
2022/08/29 00:31:52;;;;;;;8.50;6.95;;;;;;;18.50;100.00;98049.83;1771571;80;20879;-91
2022/08/29 00:34:18;;;;;;;7.75;6.60;;;;;;;18.54;100.00;98045.84;1771662;81;20890;-91
2022/08/29 00:36:44;;;;;;;7.83;6.10;;;;;;;18.56;100.00;98048.52;1772097;81;20910;-86
2022/08/29 00:39:10;;;;;;;9.98;6.28;;;;;;;18.56;100.00;98038.11;1771909;80;20942;-85
2022/08/29 00:41:36;;;;;;;7.80;6.62;;;;;;;18.53;100.00;98038.19;1771909;81;22011;-89
2022/08/29 00:44:03;;;;;;;9.48;6.33;;;;;;;18.53;100.00;98042.87;1771737;81;20858;-91
2022/08/29 00:46:45;;;;;;;8.20;6.83;;;;;;;18.51;100.00;98039.66;1765849;81;21010;-90
2022/08/29 00:49:18;;;;;;;9.05;7.03;;;;;;;18.48;100.00;98034.84;1756543;81;20998;-85
2022/08/29 00:51:44;;;;;;;10.50;7.47;;;;;;;18.45;100.00;98040.97;1756091;81;21065;-90
2022/08/29 00:54:10;;;;;;;8.48;6.40;;;;;;;18.39;100.00;98039.00;1741017;81;21387;-89
2022/08/29 00:56:37;;;;;;;7.28;6.08;;;;;;;18.33;100.00;98043.86;1771839;79;20941;-89
2022/08/29 00:59:23;;;;;;;9.10;6.83;;;;;;;18.31;100.00;98040.64;1783678;79;20946;-86
2022/08/29 01:01:49;;;;;;;7.47;6.35;;;;;;;18.28;100.00;98043.23;1766140;81;21035;-86
2022/08/29 01:04:15;;;;;;;9.70;7.58;;;;;;;18.27;100.00;98044.36;1756737;80;20871;-85
2022/08/29 01:06:41;;;;;;;7.50;5.78;;;;;;;18.25;100.00;98041.95;1765484;80;21109;-91
2022/08/29 01:09:07;;;;;;;6.65;5.62;;;;;;;18.25;100.00;98037.84;1747327;80;21467;-85
2022/08/29 01:14:18;;;;;;;8.13;6.25;;;;;;;18.24;100.00;98043.66;1767692;81;20958;-91
2022/08/29 01:16:45;;;;;;;9.35;6.55;;;;;;;18.26;100.00;98044.13;1765452;81;20977;-91
2022/08/29 01:19:44;;;;;;;8.15;6.33;;;;;;;18.25;100.00;98046.06;1771848;80;21110;-86
2022/08/29 01:22:39;;;;;;;7.62;6.22;;;;;;;18.26;100.00;98048.24;1703507;83;20933;-86
2022/08/29 01:25:10;;;;;;;7.80;6.12;;;;;;;18.25;100.00;98048.81;1715984;83;21023;-90
2022/08/29 01:27:37;;;;;;;8.95;6.37;;;;;;;18.24;100.00;98052.69;1730708;81;20993;-90
2022/08/29 01:30:05;;;;;;;10.48;5.47;;;;;;;18.23;100.00;98051.08;1758136;81;21471;-91
2022/08/29 01:32:31;;;;;;;7.03;5.78;;;;;;;18.22;100.00;98051.42;1762026;80;21143;-90
2022/08/29 01:34:57;;;;;;;5.47;4.75;;;;;;;18.22;100.00;98049.48;1771881;81;20984;-86
2022/08/29 01:37:23;;;;;;;9.13;5.55;;;;;;;18.23;100.00;98046.97;1771808;80;21402;-91
2022/08/29 01:39:49;;;;;;;9.58;6.45;;;;;;;18.20;100.00;98055.86;1768197;81;20962;-90
2022/08/29 01:42:19;;;;;;;10.65;8.60;;;;;;;18.22;100.00;98052.79;1726003;81;20864;-87
2022/08/29 01:44:53;;;;;;;17.92;12.03;;;;;;;18.20;100.00;98057.23;1754103;81;21698;-85
2022/08/29 01:47:21;;;;;;;17.77;12.53;;;;;;;18.19;100.00;98054.23;1752433;79;21064;-86
2022/08/29 01:49:46;;;;;;;16.52;12.68;;;;;;;18.18;100.00;98052.63;1730332;81;20992;-90
2022/08/29 01:52:12;;;;;;;16.37;13.85;;;;;;;18.20;100.00;98057.78;1763615;81;20942;-85
2022/08/29 01:54:42;;;;;;;18.98;13.32;;;;;;;18.19;100.00;98053.42;1756892;81;20961;-91
2022/08/29 01:57:09;;;;;;;17.92;14.20;;;;;;;18.18;100.00;98060.85;1759207;81;21319;-86
2022/08/29 01:59:35;;;;;;;18.95;14.98;;;;;;;18.17;100.00;98058.44;1766916;81;21402;-91
2022/08/29 02:02:18;;;;;;;22.77;15.13;;;;;;;18.18;100.00;98058.67;1770611;80;21555;-86
2022/08/29 02:04:45;;;;;;;19.65;16.30;;;;;;;18.17;100.00;98059.25;1744880;81;21068;-86
2022/08/29 02:07:14;;;;;;;18.05;15.35;;;;;;;18.17;100.00;98063.36;1757024;81;21042;-86
2022/08/29 02:09:40;;;;;;;26.00;17.35;;;;;;;18.18;100.00;98063.59;1745779;80;21863;-91
2022/08/29 02:12:06;;;;;;;21.02;15.58;;;;;;;18.18;100.00;98057.30;1763508;80;20943;-86
2022/08/29 02:14:33;;;;;;;20.27;14.73;;;;;;;18.19;100.00;98067.14;1756837;80;20963;-85
2022/08/29 02:17:03;;;;;;;20.10;15.30;;;;;;;18.19;100.00;98064.39;1757018;80;20963;-86
2022/08/29 02:19:30;;;;;;;18.27;14.75;;;;;;;18.16;100.00;98068.61;1769102;81;21021;-90
2022/08/29 02:21:56;;;;;;;24.23;17.25;;;;;;;18.15;100.00;98063.45;1771998;81;21139;-90
2022/08/29 02:24:22;;;;;;;24.72;17.30;;;;;;;18.13;100.00;98067.91;1772149;81;20925;-91
2022/08/29 02:26:48;;;;;;;20.82;16.15;;;;;;;18.13;100.00;98066.53;1766538;81;20929;-90
2022/08/29 02:29:14;;;;;;;23.38;16.87;;;;;;;18.11;100.00;98067.41;1756682;81;20907;-86
2022/08/29 02:31:41;;;;;;;23.90;17.32;;;;;;;18.11;100.00;98066.60;1756979;80;20977;-90
2022/08/29 02:34:07;;;;;;;24.32;17.15;;;;;;;18.13;100.00;98072.02;1767381;79;21173;-85
2022/08/29 02:36:34;;;;;;;26.50;17.48;;;;;;;18.12;100.00;98070.41;1759768;80;20997;-90
2022/08/29 02:39:00;;;;;;;24.07;18.07;;;;;;;18.10;100.00;98071.28;1759800;79;21519;-89
2022/08/29 02:41:26;;;;;;;27.40;18.73;;;;;;;18.05;100.00;98070.11;1753820;80;21500;-86
2022/08/29 02:43:52;;;;;;;30.70;18.95;;;;;;;18.04;100.00;98070.67;1756802;80;20827;-85
2022/08/29 02:46:18;;;;;;;24.40;18.80;;;;;;;18.06;100.00;98069.53;1730857;82;21788;-86
2022/08/29 02:48:45;;;;;;;21.68;17.67;;;;;;;18.04;100.00;98067.93;1754712;80;20998;-90
2022/08/29 02:51:21;;;;;;;26.97;17.90;;;;;;;18.01;100.00;98065.02;1765571;80;20942;-86
2022/08/29 02:53:46;;;;;;;31.80;19.23;;;;;;;17.99;100.00;98063.98;1764580;79;21030;-86
2022/08/29 02:56:13;;;;;;;28.67;19.35;;;;;;;17.98;100.00;98069.23;1756715;81;21287;-86
2022/08/29 02:58:39;;;;;;;27.87;19.42;;;;;;;17.98;100.00;98067.05;1756793;80;21143;-90
2022/08/29 03:01:05;;;;;;;29.18;20.45;;;;;;;18.00;100.00;98066.16;1756730;80;21463;-86
2022/08/29 03:03:32;;;;;;;23.92;17.02;;;;;;;17.95;100.00;98068.52;1756847;80;20924;-86
2022/08/29 03:05:58;;;;;;;26.42;17.23;;;;;;;17.97;100.00;98070.93;1765871;80;21367;-85
2022/08/29 03:08:24;;;;;;;20.10;16.50;;;;;;;17.97;100.00;98081.90;1762809;81;21563;-86
2022/08/29 03:10:50;;;;;;;30.65;19.52;;;;;;;17.97;100.00;98073.67;1749992;81;21315;-87
2022/08/29 03:13:17;;;;;;;27.17;18.23;;;;;;;17.95;100.00;98076.75;1757046;81;20910;-89
2022/08/29 03:15:43;;;;;;;26.17;18.30;;;;;;;17.96;100.00;98078.35;1756781;80;21320;-86
2022/08/29 03:18:08;;;;;;;22.98;16.90;;;;;;;17.95;100.00;98084.97;1741357;81;21452;-86
2022/08/29 03:20:35;;;;;;;25.25;17.37;;;;;;;17.93;100.00;98089.14;1765344;81;20883;-91
2022/08/29 03:23:01;;;;;;;22.40;17.00;;;;;;;17.90;100.00;98089.81;1770164;81;20989;-88
2022/08/29 03:25:27;;;;;;;21.75;17.15;;;;;;;17.89;100.00;98084.89;1765889;81;20955;-86
2022/08/29 03:27:53;;;;;;;28.10;19.23;;;;;;;17.90;100.00;98082.95;1754646;80;21044;-90
2022/08/29 03:30:20;;;;;;;25.77;17.02;;;;;;;17.89;100.00;98087.64;1751582;81;20886;-90
2022/08/29 03:32:47;;;;;;;29.10;17.95;;;;;;;17.89;100.00;98086.27;1772239;80;20990;-90
2022/08/29 03:35:13;;;;;;;30.68;18.92;;;;;;;17.86;100.00;98086.09;1771876;81;21019;-86
2022/08/29 03:37:39;;;;;;;28.10;19.35;;;;;;;17.85;100.00;98093.52;1771915;81;20963;-89
2022/08/29 03:40:07;;;;;;;24.47;18.37;;;;;;;17.86;100.00;98097.89;1768285;80;20978;-86
2022/08/29 03:42:34;;;;;;;24.00;17.65;;;;;;;17.87;100.00;98094.59;1756952;81;20963;-89
2022/08/29 03:45:08;;;;;;;23.12;17.98;;;;;;;17.88;100.00;98104.41;1763511;80;20977;-91
2022/08/29 03:47:34;;;;;;;25.27;18.25;;;;;;;17.86;100.00;98107.48;1742808;79;21163;-86
2022/08/29 03:50:00;;;;;;;25.02;17.73;;;;;;;17.80;100.00;98106.03;1731861;81;20855;-90
2022/08/29 03:52:26;;;;;;;26.73;18.95;;;;;;;17.80;100.00;98107.41;1757684;79;21036;-90
2022/08/29 03:54:52;;;;;;;24.95;17.42;;;;;;;17.78;100.00;98115.16;1757589;80;21587;-90
2022/08/29 03:57:18;;;;;;;23.02;17.02;;;;;;;17.76;100.00;98112.71;1772004;81;21013;-89
2022/08/29 03:59:44;;;;;;;24.77;18.25;;;;;;;17.77;100.00;98123.11;1771960;81;21010;-89
2022/08/29 04:02:10;;;;;;;25.43;16.75;;;;;;;17.73;100.00;98113.37;1734047;81;21520;-90
2022/08/29 04:07:20;;;;;;;23.38;16.87;;;;;;;17.73;100.00;98122.16;1756520;80;21058;-86
2022/08/29 04:09:46;;;;;;;27.37;20.12;;;;;;;17.72;100.00;98114.50;1746443;81;20892;-89
2022/08/29 04:12:12;;;;;;;30.45;19.77;;;;;;;17.74;100.00;98121.83;1733662;80;21171;-90
2022/08/29 04:14:38;;;;;;;27.75;19.90;;;;;;;17.75;100.00;98128.91;1752647;81;21030;-85
2022/08/29 04:17:06;;;;;;;25.62;18.55;;;;;;;17.73;100.00;98133.92;1756852;80;21005;-86
2022/08/29 04:19:34;;;;;;;23.83;18.07;;;;;;;17.74;100.00;98127.31;1769336;80;20954;-86
2022/08/29 04:22:00;;;;;;;25.65;17.65;;;;;;;17.74;100.00;98138.84;1758384;80;20979;-91
2022/08/29 04:24:26;;;;;;;27.40;20.62;;;;;;;17.74;100.00;98133.36;1768783;81;20982;-91
2022/08/29 04:26:52;;;;;;;32.17;28.77;;;;;;;17.74;100.00;98141.01;1771940;81;20866;-90
2022/08/29 04:29:18;;;;;;;36.25;32.42;;;;;;;17.75;100.00;98148.10;1772022;81;20929;-86
2022/08/29 04:31:44;;;;;;;33.28;28.87;;;;;;;17.77;100.00;98143.66;1757848;80;20919;-86
2022/08/29 04:34:11;;;;;;;27.52;18.90;;;;;;;17.74;100.00;98145.12;1766946;80;20839;-91
2022/08/29 04:36:40;;;;;;;26.85;18.67;;;;;;;17.75;100.00;98154.15;1767052;81;21316;-91
2022/08/29 04:39:06;;;;;;;;;;;;;;;17.76;100.00;98153.81;1759240;80;20998;-91
2022/08/29 04:41:32;;;;;;;26.12;17.37;;;;;;;17.75;100.00;98159.06;1756907;81;20178;-90
2022/08/29 04:43:57;;;;;;;27.22;19.62;;;;;;;17.79;100.00;98158.44;1740773;81;21006;-88
2022/08/29 04:46:24;;;;;;;22.35;19.30;;;;;;;17.79;100.00;98165.28;1766781;79;21102;-86
2022/08/29 04:48:50;;;;;;;24.70;19.50;;;;;;;17.79;100.00;98170.77;1752931;81;22018;-91
2022/08/29 04:51:16;;;;;;;24.35;16.62;;;;;;;17.78;100.00;98168.59;1759313;81;20843;-89
2022/08/29 04:53:41;;;;;;;25.68;22.02;;;;;;;17.80;100.00;98162.22;1756219;81;20850;-88
2022/08/29 04:56:09;;;;;;;23.35;20.43;;;;;;;17.74;100.00;98173.89;1748624;80;20863;-86
2022/08/29 04:58:37;;;;;;;29.50;19.90;;;;;;;17.74;100.00;98171.72;1756830;80;21002;-92
2022/08/29 05:01:04;;;;;;;27.25;16.95;;;;;;;17.75;100.00;98174.13;1749526;80;21462;-91
2022/08/29 05:03:31;;;;;;;23.83;18.25;;;;;;;17.76;100.00;98174.94;1742797;81;20969;-86
2022/08/29 05:06:07;;;;;;;24.70;16.75;;;;;;;17.78;100.00;98183.67;1750586;81;20946;-86
2022/08/29 05:08:36;;;;;;;21.57;17.50;;;;;;;17.78;100.00;98178.75;1760579;81;21378;-86
2022/08/29 05:11:05;;;;;;;25.68;17.42;;;;;;;17.70;100.00;98181.16;1752190;81;21395;-91
2022/08/29 05:13:32;;;;;;;23.75;16.67;;;;;;;17.69;100.00;98189.11;1756684;80;21863;-86
2022/08/29 05:15:59;;;;;;;22.22;17.10;;;;;;;17.66;100.00;98194.41;1760676;81;20956;-90
2022/08/29 05:18:25;;;;;;;26.05;18.10;;;;;;;17.65;100.00;98200.46;1760050;79;20993;-86
2022/08/29 05:20:51;;;;;;;22.07;17.90;;;;;;;17.63;100.00;98198.61;1740074;80;20986;-86
2022/08/29 05:23:17;;;;;;;27.13;17.25;;;;;;;17.63;100.00;98199.98;1742747;81;20899;-91
2022/08/29 05:25:43;;;;;;;27.22;19.80;;;;;;;17.63;100.00;98204.09;1745376;80;20951;-85
2022/08/29 05:28:10;;;;;;;26.85;19.00;;;;;;;17.63;100.00;98203.29;1736476;81;20984;-85
2022/08/29 05:30:38;;;;;;;22.73;18.30;;;;;;;17.64;100.00;98209.81;1720133;81;21031;-87
2022/08/29 05:33:05;;;;;;;25.00;18.40;;;;;;;17.60;100.00;98208.83;1749595;81;20996;-86
2022/08/29 05:35:32;;;;;;;27.75;20.48;;;;;;;17.59;100.00;98207.78;1740128;81;20968;-89
2022/08/29 05:37:58;;;;;;;29.15;19.05;;;;;;;17.56;100.00;98211.17;1736161;81;20993;-91
2022/08/29 05:40:24;;;;;;;28.00;20.40;;;;;;;17.56;100.00;98216.09;1760218;79;21094;-90
2022/08/29 05:42:50;;;;;;;28.98;20.68;;;;;;;17.53;100.00;98215.94;1745120;81;20987;-86
2022/08/29 05:45:16;;;;;;;28.65;19.52;;;;;;;17.52;100.00;98222.52;1752566;81;20908;-86
2022/08/29 05:47:42;;;;;;;29.07;19.95;;;;;;;17.55;100.00;98222.70;1754412;81;20942;-86
2022/08/29 05:50:10;;;;;;;33.65;21.65;;;;;;;17.54;100.00;98226.56;1748646;81;21178;-86
2022/08/29 05:52:36;;;;;;;25.48;20.68;;;;;;;17.55;100.00;98225.44;1768874;79;21033;-85
2022/08/29 05:55:03;;;;;;;30.30;21.93;;;;;;;17.57;100.00;98231.96;1750391;80;20900;-90
2022/08/29 05:57:28;;;;;;;28.90;21.65;;;;;;;17.56;100.00;98226.24;1761805;81;20997;-85
2022/08/29 05:59:55;;;;;;;30.88;21.27;;;;;;;17.55;100.00;98230.91;1772282;80;20873;-90
2022/08/29 06:02:21;;;;;;;27.37;21.27;;;;;;;17.54;100.00;98232.05;1772205;81;21394;-86
2022/08/29 06:04:48;;;;;;;37.42;22.80;;;;;;;17.55;100.00;98232.28;1771935;81;38400;-85
2022/08/29 06:07:14;;;;;;;30.27;21.40;;;;;;;17.57;100.00;98230.03;1772125;81;21514;-86
2022/08/29 06:09:40;;;;;;;27.90;20.70;;;;;;;17.54;100.00;98233.42;1763898;80;20954;-91
2022/08/29 06:12:07;;;;;;;33.88;22.73;;;;;;;17.51;100.00;98229.12;1762084;80;21298;-89
2022/08/29 06:14:33;;;;;;;34.13;22.82;;;;;;;17.46;100.00;98232.84;1729090;81;21381;-85
2022/08/29 06:16:59;;;;;;;34.05;22.25;;;;;;;17.47;100.00;98233.08;1754676;80;21654;-86
2022/08/29 06:19:25;;;;;;;34.33;21.27;;;;;;;17.47;100.00;98234.45;1743602;81;21012;-91
2022/08/29 06:21:54;;;;;;;31.95;24.30;;;;;;;17.48;100.00;98242.91;1750787;81;20865;-91
2022/08/29 06:24:20;;;;;;;31.82;21.62;;;;;;;17.49;100.00;98242.58;1723018;82;25680;-86
2022/08/29 06:26:45;;;;;;;27.82;20.75;;;;;;;17.53;100.00;98249.61;1692094;83;21131;-86
2022/08/29 06:29:13;;;;;;;29.10;22.93;;;;;;;17.51;100.00;98251.84;1687581;84;20921;-90
2022/08/29 06:31:39;;;;;;;26.12;18.92;;;;;;;17.57;100.00;98253.88;1690633;84;20973;-86
2022/08/29 06:34:05;;;;;;;23.25;17.85;;;;;;;17.60;100.00;98254.03;1717607;82;21099;-91
2022/08/29 06:36:31;;;;;;;24.32;19.77;;;;;;;17.61;100.00;98261.16;1691997;82;21012;-90
2022/08/29 06:38:59;;;;;;;25.50;18.57;;;;;;;17.60;100.00;98258.14;1688133;84;21644;-86
2022/08/29 06:41:25;;;;;;;23.20;17.55;;;;;;;17.60;100.00;98269.10;1685386;84;21087;-85
2022/08/29 06:43:51;;;;;;;23.45;16.55;;;;;;;17.59;100.00;98269.42;1671272;84;21072;-90
2022/08/29 06:46:25;;;;;;;24.80;17.52;;;;;;;17.54;100.00;98269.59;1755740;79;21185;-85
2022/08/29 06:48:51;;;;;;;18.67;15.68;;;;;;;17.53;100.00;98276.20;1752652;79;20982;-91
2022/08/29 06:51:17;;;;;;;26.82;18.07;;;;;;;17.56;100.00;98286.52;1752672;79;21110;-85
2022/08/29 06:53:43;;;;;;;25.72;18.67;;;;;;;17.56;100.00;98281.03;1748200;81;20855;-86
2022/08/29 06:56:09;;;;;;;27.40;17.82;;;;;;;17.58;100.00;98285.06;1753349;81;20921;-91
2022/08/29 06:58:35;;;;;;;21.70;16.77;;;;;;;17.65;100.00;98284.59;1751758;81;21135;-85
2022/08/29 07:01:07;;;;;;;25.08;18.40;;;;;;;17.63;100.00;98284.92;1746915;81;20908;-90
2022/08/29 07:03:33;;;;;;;22.30;15.35;;;;;;;17.70;100.00;98289.41;1747282;81;22011;-91
2022/08/29 07:05:59;;;;;;;20.10;15.05;;;;;;;17.75;100.00;98293.34;1749597;80;21390;-84
2022/08/29 07:08:25;;;;;;;26.50;16.60;;;;;;;17.80;100.00;98297.08;1754795;81;21465;-86
2022/08/29 07:10:51;;;;;;;18.82;15.48;;;;;;;17.88;100.00;98301.77;1750164;79;20878;-88
2022/08/29 07:13:17;;;;;;;19.48;14.75;;;;;;;17.95;100.00;98299.36;1747046;79;20966;-89
2022/08/29 07:15:43;;;;;;;18.90;13.65;;;;;;;18.04;100.00;98306.46;1744211;80;21284;-85
2022/08/29 07:18:09;;;;;;;17.15;13.38;;;;;;;18.13;100.00;98310.58;1747882;80;20894;-86
2022/08/29 07:20:38;;;;;;;18.60;13.93;;;;;;;18.25;100.00;98305.81;1749150;81;20916;-85
2022/08/29 07:23:05;;;;;;;19.35;13.50;;;;;;;18.46;100.00;98310.91;1755683;80;20997;-86
2022/08/29 07:25:32;;;;;;;18.92;13.80;;;;;;;18.72;100.00;98307.34;1729778;80;21114;-86
2022/08/29 07:27:57;;;;;;;19.75;12.78;;;;;;;18.88;100.00;98308.42;1742179;81;21566;-86
2022/08/29 07:30:24;;;;;;;17.02;12.40;;;;;;;19.03;100.00;98301.03;1753867;81;21001;-85
2022/08/29 07:32:50;;;;;;;14.70;11.18;;;;;;;19.22;100.00;98306.70;1726169;81;21036;-92
2022/08/29 07:35:17;;;;;;;15.00;12.20;;;;;;;19.42;100.00;98304.03;1739634;81;20857;-86
2022/08/29 07:37:43;;;;;;;16.23;12.05;;;;;;;19.50;100.00;98305.13;1745251;80;21446;-91
2022/08/29 07:40:11;;;;;;;19.10;11.63;;;;;;;19.55;100.00;98304.92;1748644;81;21156;-91
2022/08/29 07:42:37;;;;;;;19.25;11.70;;;;;;;19.55;100.00;98307.67;1716310;81;28662;-86
2022/08/29 07:45:05;;;;;;;15.98;10.75;;;;;;;19.59;100.00;98308.67;1742366;80;21440;-85
2022/08/29 07:47:31;;;;;;;17.20;11.22;;;;;;;19.60;100.00;98318.52;1748753;81;21375;-92
2022/08/29 07:50:00;;;;;;;26.17;16.52;;;;;;;19.55;98.17;98317.86;1748142;81;21025;-86
2022/08/29 07:52:25;;;;;;;22.97;17.20;;;;;;;19.41;94.89;98319.48;1740916;81;21088;-91
2022/08/29 07:54:51;;;;;;;16.42;11.60;;;;;;;19.43;97.11;98320.76;1750794;81;20930;-86
2022/08/29 07:57:17;;;;;;;17.80;13.32;;;;;;;19.36;95.34;98320.46;1752545;81;21054;-85
2022/08/29 07:59:43;;;;;;;17.30;12.10;;;;;;;19.48;95.77;98321.69;1741708;81;21502;-86
2022/08/29 08:02:09;;;;;;;12.40;9.65;;;;;;;19.43;96.52;98315.27;1731611;81;21114;-91
2022/08/29 08:04:35;;;;;;;12.18;10.95;;;;;;;19.30;93.23;98323.14;1757127;80;21122;-91
2022/08/29 08:07:01;;;;;;;14.07;10.90;;;;;;;19.20;95.44;98318.59;1748272;80;20937;-86
2022/08/29 08:09:27;;;;;;;16.55;11.03;;;;;;;19.12;96.87;98327.89;1733308;80;21119;-90
2022/08/29 08:11:53;;;;;;;19.10;11.53;;;;;;;19.08;97.60;98330.27;1746334;81;20910;-91
2022/08/29 08:14:19;;;;;;;16.02;10.82;;;;;;;19.12;97.99;98329.84;1745553;80;21013;-86
2022/08/29 08:16:45;;;;;;;16.07;11.73;;;;;;;19.14;96.41;98329.77;1756545;81;21996;-86
2022/08/29 08:19:12;;;;;;;14.38;11.80;;;;;;;19.27;97.66;98335.37;1754503;81;21080;-85
2022/08/29 08:21:39;;;;;;;15.83;12.65;;;;;;;19.40;97.71;98334.36;1746118;79;21065;-86
2022/08/29 08:24:05;;;;;;;14.63;12.13;;;;;;;19.50;95.62;98336.73;1751113;79;21044;-86
2022/08/29 08:26:31;;;;;;;15.70;12.30;;;;;;;19.60;96.23;98341.08;1751000;81;21521;-92
2022/08/29 08:28:57;;;;;;;14.28;11.85;;;;;;;19.44;93.89;98339.42;1748292;81;21720;-91
2022/08/29 08:31:23;;;;;;;18.67;12.93;;;;;;;19.44;94.67;98344.92;1743289;81;20885;-86
2022/08/29 08:33:50;;;;;;;15.90;12.07;;;;;;;19.34;94.80;98344.72;1755569;79;21098;-91
2022/08/29 08:36:23;;;;;;;17.87;13.22;;;;;;;19.27;95.22;98348.53;1749970;80;21148;-86
2022/08/29 08:38:50;;;;;;;22.32;13.08;;;;;;;19.28;95.65;98343.84;1739523;81;21068;-92
2022/08/29 08:41:35;;;;;;;17.82;13.62;;;;;;;19.24;94.08;98342.91;1749739;81;21498;-86
2022/08/29 08:44:05;;;;;;;19.57;13.38;;;;;;;19.41;94.93;98345.02;1750219;81;21061;-86
2022/08/29 08:46:42;;;;;;;16.62;12.13;;;;;;;19.59;94.65;98343.03;1763677;79;21108;-85
2022/08/29 08:49:25;;;;;;;17.82;11.90;;;;;;;19.90;91.94;98334.42;1746429;80;20940;-91
2022/08/29 08:51:55;;;;;;;19.40;11.25;;;;;;;21.28;90.82;98347.61;1745815;81;21509;-92
2022/08/29 08:54:24;;;;;;;12.85;10.50;;;;;;;22.65;86.96;98343.23;1746934;81;22004;-86
2022/08/29 08:57:08;;;;;;;11.45;9.58;;;;;;;24.02;82.87;98349.77;1750559;80;21044;-86
2022/08/29 08:59:39;;;;;;;12.05;9.40;;;;;;;23.38;78.82;98351.73;1712424;81;21061;-86
2022/08/29 09:02:33;;;;;;;16.75;9.53;;;;;;;22.84;82.40;98352.24;1753384;80;21473;-92
2022/08/29 09:05:46;;;;;;;13.13;9.28;;;;;;;21.85;78.76;98353.59;1746140;81;21093;-86
2022/08/29 09:08:22;;;;;;;14.68;9.08;;;;;;;21.32;82.17;98356.80;1752000;81;21822;-86
2022/08/29 09:11:10;;;;;;;14.73;8.65;;;;;;;21.19;84.55;98352.36;1741395;81;21081;-92
2022/08/29 09:13:55;;;;;;;18.60;9.53;;;;;;;21.23;85.68;98349.75;1733132;81;21000;-86
2022/08/29 09:16:38;;;;;;;17.75;9.05;;;;;;;21.30;85.05;98348.64;1748136;81;21449;-91
2022/08/29 09:19:08;;;;;;;13.22;8.70;;;;;;;23.41;82.31;98348.23;1747988;81;21363;-92
2022/08/29 09:21:38;;;;;;;13.40;7.03;;;;;;;24.80;79.98;98347.90;1746320;79;21336;-92
2022/08/29 09:24:05;;;;;;;9.63;6.90;;;;;;;24.71;78.48;98335.66;1740293;81;21037;-87
2022/08/29 09:26:31;;;;;;;10.78;6.83;;;;;;;24.40;78.79;98342.13;1746818;81;21097;-86
2022/08/29 09:28:57;;;;;;;9.65;7.65;;;;;;;23.93;74.92;98345.80;1745256;80;20884;-92
2022/08/29 09:31:31;;;;;;;10.23;7.45;;;;;;;23.44;75.01;98342.59;1747006;81;21485;-86
2022/08/29 09:34:03;;;;;;;10.58;7.37;;;;;;;23.18;75.87;98352.20;1750672;79;21342;-92
2022/08/29 09:36:46;;;;;;;9.78;6.75;;;;;;;22.70;75.13;98343.55;1748536;81;21063;-86
2022/08/29 09:39:26;;;;;;;14.28;7.70;;;;;;;22.34;75.29;98341.14;1733734;81;21040;-86
2022/08/29 09:41:57;;;;;;;10.28;7.20;;;;;;;22.60;77.62;98353.14;1715657;83;21122;-86
2022/08/29 09:44:31;;;;;;;10.93;7.12;;;;;;;23.28;75.66;98355.83;1751607;81;21570;-87
2022/08/29 09:47:07;;;;;;;14.73;7.17;;;;;;;23.42;75.90;98348.48;1756107;79;22097;-92
2022/08/29 09:49:33;;;;;;;9.75;7.75;;;;;;;23.32;74.35;98349.00;1742868;79;21057;-87
2022/08/29 09:52:16;;;;;;;9.20;7.55;;;;;;;23.25;73.26;98353.78;1746406;79;21054;-93
2022/08/29 09:54:43;;;;;;;10.23;7.53;;;;;;;23.08;73.58;98349.39;1756388;81;21093;-92
2022/08/29 09:57:25;;;;;;;12.18;8.18;;;;;;;22.57;75.61;98356.61;1732984;81;21116;-87
2022/08/29 10:00:13;;;;;;;16.40;8.05;;;;;;;22.66;76.35;98355.89;1746994;79;21939;-93
2022/08/29 10:02:46;;;;;;;9.08;8.05;;;;;;;22.72;76.85;98357.80;1749497;81;21045;-92
2022/08/29 10:05:40;;;;;;;10.55;8.80;;;;;;;22.72;77.16;98358.60;1755652;80;20983;-86
2022/08/29 10:08:10;;;;;;;13.22;7.42;;;;;;;22.67;77.38;98356.69;1755021;79;21121;-86
2022/08/29 10:10:38;;;;;;;15.32;9.08;;;;;;;22.54;76.97;98350.39;1698599;82;21077;-87
2022/08/29 10:13:10;;;;;;;13.40;7.53;;;;;;;22.66;77.69;98353.13;1703004;82;21076;-86
2022/08/29 10:15:59;;;;;;;11.28;7.47;;;;;;;22.96;77.64;98345.88;1752983;81;21030;-92
2022/08/29 10:18:51;;;;;;;8.58;6.53;;;;;;;23.19;76.20;98346.90;1739438;81;21029;-86
2022/08/29 10:21:50;;;;;;;9.48;6.40;;;;;;;23.28;73.96;98346.73;1732097;81;21570;-86
2022/08/29 10:24:46;;;;;;;7.75;6.10;;;;;;;23.48;72.63;98344.86;1751430;79;20972;-93
2022/08/29 10:27:38;;;;;;;7.40;5.12;;;;;;;23.42;73.89;98341.58;1742765;80;21289;-92
2022/08/29 10:30:20;;;;;;;8.15;6.35;;;;;;;23.64;73.31;98340.95;1750157;81;21048;-86
2022/08/29 10:33:12;;;;;;;9.90;5.70;;;;;;;23.72;72.88;98341.14;1750436;81;21037;-86
2022/08/29 10:35:49;;;;;;;12.47;7.20;;;;;;;23.64;71.46;98341.54;1744815;81;21596;-91
2022/08/29 10:38:41;;;;;;;11.60;6.85;;;;;;;23.26;70.23;98349.05;1738763;79;21066;-92
2022/08/29 10:41:13;;;;;;;6.65;5.83;;;;;;;23.27;70.22;98343.16;1728243;81;21133;-87
2022/08/29 10:43:46;;;;;;;11.40;7.72;;;;;;;23.10;69.32;98350.41;1715408;82;20986;-93
2022/08/29 10:46:44;;;;;;;15.35;6.65;;;;;;;23.27;71.07;98342.36;1750877;81;21101;-86
2022/08/29 10:50:03;;;;;;;16.73;8.53;;;;;;;23.18;71.72;98343.11;1754529;79;21021;-87
2022/08/29 10:52:47;;;;;;;11.30;7.45;;;;;;;23.16;72.64;98339.33;1686699;83;21084;-91
2022/08/29 10:55:36;;;;;;;11.85;6.75;;;;;;;22.71;72.30;98340.42;1742445;81;21135;-87
2022/08/29 10:58:26;;;;;;;11.70;6.55;;;;;;;22.76;72.07;98336.62;1740811;81;21090;-87
2022/08/29 11:01:03;;;;;;;8.98;6.58;;;;;;;23.20;73.77;98340.21;1742654;80;21062;-94
2022/08/29 11:03:44;;;;;;;9.68;7.10;;;;;;;23.30;73.24;98336.91;1738114;81;21049;-86
2022/08/29 11:06:21;;;;;;;9.55;7.37;;;;;;;23.20;71.46;98340.79;1735550;81;21095;-87
2022/08/29 11:09:04;;;;;;;10.28;6.42;;;;;;;23.23;72.46;98332.58;1757346;81;21940;-87
2022/08/29 11:11:30;;;;;;;9.98;5.95;;;;;;;22.98;72.06;98333.88;1696011;83;21646;-87
2022/08/29 11:14:01;;;;;;;10.58;5.37;;;;;;;23.33;71.60;98321.59;1704620;82;21045;-91
2022/08/29 11:16:40;;;;;;;8.58;6.10;;;;;;;23.51;69.05;98316.51;1751461;81;21533;-91
2022/08/29 11:19:27;;;;;;;9.43;6.75;;;;;;;23.57;69.43;98313.67;1716012;81;21128;-88
2022/08/29 11:22:02;;;;;;;11.83;8.30;;;;;;;23.38;69.22;98320.52;1677083;83;21070;-85
2022/08/29 11:24:32;;;;;;;9.83;7.62;;;;;;;22.93;70.61;98318.96;1675385;83;21114;-85
2022/08/29 11:27:12;;;;;;;10.18;7.12;;;;;;;22.67;70.21;98318.02;1676795;84;21238;-85
2022/08/29 11:30:11;;;;;;;9.70;7.15;;;;;;;22.78;71.73;98317.16;1683420;84;21152;-85
2022/08/29 11:32:55;;;;;;;10.70;6.70;;;;;;;22.97;71.92;98318.47;1674960;84;21661;-90
2022/08/29 11:35:49;;;;;;;9.65;7.17;;;;;;;23.18;70.98;98307.98;1742341;81;21095;-85